Island Challenger — P3WS9 — position and weather

sailwx.info

Track history (hours):
 
Tides and Currents Weather Stations Pressure Air Temp Water Temp Dewpoint Dewpoint Depression Visibility Wind Speed Wind Dir Waves Ship Positions

Island Challenger

Last reported at 2018-Jun-19 00:18 UTC. Time now 2018-Jun-19 01:16 UTC.
Position N 34°40' E 033°03'.

Length 77 m; draft 5.2 m.

Type: Ship (hazmat cat A). MMSI: 210595000.

Date/timePositionNaut miles runAvg speedWind from/ knotsBaromVisibWave heightAir tempDewpointWater temp
2018-Jun-19 00:18N 34°40' E 033°03'1 0.0
2018-Jun-18 04:51N 34°40' E 033°04'0 0.1
2018-Jun-18 03:14N 34°40' E 033°04'1 0.1
2018-Jun-17 22:03N 34°40' E 033°03'0 0.0
2018-Jun-17 21:39N 34°40' E 033°03'0 0.0
2018-Jun-17 05:33N 34°40' E 033°03'0 0.0
2018-Jun-17 05:27N 34°40' E 033°03'0 0.0
2018-Jun-17 00:09N 34°40' E 033°03'0 0.0
2018-Jun-17 00:00N 34°40' E 033°03'0 0.0
2018-Jun-16 22:15N 34°40' E 033°03'0 0.0
2018-Jun-16 21:45N 34°40' E 033°03'0 0.0
2018-Jun-16 21:17N 34°40' E 033°03'0 0.0
2018-Jun-16 20:47N 34°40' E 033°03'0 0.0
2018-Jun-16 19:08N 34°40' E 033°03'1 0.2
2018-Jun-16 12:48N 34°40' E 033°05'1 2.9
2018-Jun-16 12:24N 34°40' E 033°03'0 0.3
2018-Jun-16 11:23N 34°40' E 033°03'0 0.0
2018-Jun-16 10:58N 34°40' E 033°03'0 0.0
2018-Jun-16 10:30N 34°40' E 033°03'0 0.0
2018-Jun-16 09:47N 34°40' E 033°03'0 0.4
2018-Jun-16 09:30N 34°40' E 033°03'0 0.2
2018-Jun-16 09:00N 34°40' E 033°03'0 0.0
2018-Jun-16 08:10N 34°40' E 033°03'0 0.1
2018-Jun-16 03:31N 34°40' E 033°03'0 0.9
2018-Jun-16 03:14N 34°40' E 033°03'0 0.0
2018-Jun-16 01:20N 34°40' E 033°03'0 0.0
2018-Jun-16 00:46N 34°40' E 033°03'2 3.7
2018-Jun-16 00:10N 34°40' E 033°06'0 0.4
2018-Jun-16 00:00N 34°40' E 033°06'0 0.0
2018-Jun-15 22:13N 34°40' E 033°06'0 0.0
2018-Jun-15 21:09N 34°40' E 033°06'1 0.5
2018-Jun-15 19:42N 34°40' E 033°05'0 0.1
2018-Jun-15 19:19N 34°40' E 033°05'0 0.1
2018-Jun-15 18:58N 34°40' E 033°05'0 0.0
2018-Jun-15 15:52N 34°40' E 033°05'2 0.5
2018-Jun-15 11:46N 34°40' E 033°03'2 6.2
2018-Jun-15 11:30N 34°39' E 033°02'0 0.4
2018-Jun-15 11:00N 34°39' E 033°01'0 0.0
2018-Jun-15 10:30N 34°39' E 033°01'0 0.4
2018-Jun-15 10:01N 34°39' E 033°01'0 0.4
2018-Jun-15 09:28N 34°39' E 033°01'0 0.0
2018-Jun-15 08:58N 34°39' E 033°01'0 0.0
2018-Jun-15 08:28N 34°39' E 033°01'0 0.0
2018-Jun-15 07:58N 34°39' E 033°01'0 0.0
2018-Jun-15 07:28N 34°39' E 033°01'0 0.0
2018-Jun-15 06:58N 34°39' E 033°01'0 0.0
2018-Jun-15 06:25N 34°39' E 033°01'0 0.0
2018-Jun-15 05:58N 34°39' E 033°01'1 1.1
2018-Jun-15 05:30N 34°39' E 033°02'3 0.2
2018-Jun-14 14:48N 34°40' E 033°05'1 0.2
2018-Jun-14 07:06N 34°40' E 033°03'1 7.9
2018-Jun-14 07:00N 34°39' E 033°03'1 1.6
2018-Jun-14 06:10N 34°39' E 033°01'0 0.0
2018-Jun-14 05:49N 34°39' E 033°01'0 0.0
2018-Jun-14 05:28N 34°39' E 033°01'0 0.0
2018-Jun-14 05:01N 34°39' E 033°01'2 3.6
2018-Jun-14 04:29N 34°40' E 033°03'0 0.9
2018-Jun-14 03:57N 34°40' E 033°03'0 0.0
2018-Jun-14 03:30N 34°40' E 033°03'0 0.0
2018-Jun-14 02:51N 34°40' E 033°03'0 0.0
2018-Jun-14 02:30N 34°40' E 033°03'0 0.0
2018-Jun-14 01:00N 34°40' E 033°03'0 0.0
2018-Jun-14 00:30N 34°40' E 033°03'0 0.0
2018-Jun-13 23:06N 34°40' E 033°03'0 0.0
2018-Jun-13 22:57N 34°40' E 033°03'0 0.0
2018-Jun-13 22:18N 34°40' E 033°03'0 0.0
2018-Jun-13 21:54N 34°40' E 033°03'0 0.0
2018-Jun-13 21:09N 34°40' E 033°03'0 0.0
2018-Jun-13 21:00N 34°40' E 033°03'0 0.0
2018-Jun-13 19:57N 34°40' E 033°03'1 0.1
2018-Jun-13 15:01N 34°40' E 033°04'0 0.0
2018-Jun-13 14:34N 34°40' E 033°04'0 0.0
2018-Jun-13 14:26N 34°40' E 033°04'0 0.0
2018-Jun-13 12:58N 34°40' E 033°04'2 4.1
2018-Jun-13 12:30N 34°39' E 033°02'0 0.3
2018-Jun-13 11:14N 34°39' E 033°01'0 0.0
2018-Jun-13 11:00N 34°39' E 033°01'0 0.0
2018-Jun-13 10:30N 34°39' E 033°01'0 0.0
2018-Jun-13 10:00N 34°39' E 033°01'0 0.6
2018-Jun-13 09:30N 34°39' E 033°01'0 0.4
2018-Jun-13 08:59N 34°39' E 033°01'0 0.0
2018-Jun-13 08:27N 34°39' E 033°01'0 0.0
2018-Jun-13 08:00N 34°39' E 033°01'0 0.0
2018-Jun-13 07:15N 34°39' E 033°01'0 0.0
2018-Jun-13 06:44N 34°39' E 033°01'0 0.0
2018-Jun-13 06:30N 34°39' E 033°01'2 0.2
2018-Jun-12 17:54N 34°40' E 033°04'1 0.2
2018-Jun-12 15:38N 34°40' E 033°03'0 0.5
2018-Jun-12 15:29N 34°40' E 033°03'0 0.1
2018-Jun-12 11:58N 34°40' E 033°03'2 0.6
2018-Jun-12 08:50N 34°39' E 033°01'1 1.9
2018-Jun-12 08:29N 34°39' E 033°02'1 0.0
2018-Jun-10 09:16N 34°40' E 033°03'0 0.0
2018-Jun-09 19:42N 34°40' E 033°03'0 1.0
2018-Jun-09 19:30N 34°40' E 033°03'0 0.0
2018-Jun-09 19:00N 34°40' E 033°03'0 0.0
2018-Jun-09 18:30N 34°40' E 033°03'0 0.0
2018-Jun-09 18:01N 34°40' E 033°03'0 0.0
2018-Jun-09 17:19N 34°40' E 033°03'0 0.0
2018-Jun-09 17:00N 34°40' E 033°03'0 0.0
2018-Jun-09 16:30N 34°40' E 033°03'0 0.0
2018-Jun-09 16:00N 34°40' E 033°03'1 0.2
2018-Jun-09 09:20N 34°41' E 033°04'0 0.0
2018-Jun-09 08:57N 34°41' E 033°04'0 0.0
2018-Jun-09 07:45N 34°41' E 033°04'0 0.0
2018-Jun-09 07:23N 34°41' E 033°04'  
Track history (hours):
 
Tides and Currents Weather Stations Pressure Air Temp Water Temp Dewpoint Dewpoint Depression Visibility Wind Speed Wind Dir Waves Ship Positions

Island Challenger

Last reported at 2018-Jun-19 00:18 UTC. Time now 2018-Jun-19 01:16 UTC.
Position N 34°40' E 033°03'.

Length 77 m; draft 5.2 m.

Type: Ship (hazmat cat A). MMSI: 210595000.

Date/timePositionNaut miles runAvg speedWind from/ knotsBaromVisibWave heightAir tempDewpointWater temp
2018-Jun-19 00:18N 34°40' E 033°03'1 0.0
2018-Jun-18 04:51N 34°40' E 033°04'0 0.1
2018-Jun-18 03:14N 34°40' E 033°04'1 0.1
2018-Jun-17 22:03N 34°40' E 033°03'0 0.0
2018-Jun-17 21:39N 34°40' E 033°03'0 0.0
2018-Jun-17 05:33N 34°40' E 033°03'0 0.0
2018-Jun-17 05:27N 34°40' E 033°03'0 0.0
2018-Jun-17 00:09N 34°40' E 033°03'0 0.0
2018-Jun-17 00:00N 34°40' E 033°03'0 0.0
2018-Jun-16 22:15N 34°40' E 033°03'0 0.0
2018-Jun-16 21:45N 34°40' E 033°03'0 0.0
2018-Jun-16 21:17N 34°40' E 033°03'0 0.0
2018-Jun-16 20:47N 34°40' E 033°03'0 0.0
2018-Jun-16 19:08N 34°40' E 033°03'1 0.2
2018-Jun-16 12:48N 34°40' E 033°05'1 2.9
2018-Jun-16 12:24N 34°40' E 033°03'0 0.3
2018-Jun-16 11:23N 34°40' E 033°03'0 0.0
2018-Jun-16 10:58N 34°40' E 033°03'0 0.0
2018-Jun-16 10:30N 34°40' E 033°03'0 0.0
2018-Jun-16 09:47N 34°40' E 033°03'0 0.4
2018-Jun-16 09:30N 34°40' E 033°03'0 0.2
2018-Jun-16 09:00N 34°40' E 033°03'0 0.0
2018-Jun-16 08:10N 34°40' E 033°03'0 0.1
2018-Jun-16 03:31N 34°40' E 033°03'0 0.9
2018-Jun-16 03:14N 34°40' E 033°03'0 0.0
2018-Jun-16 01:20N 34°40' E 033°03'0 0.0
2018-Jun-16 00:46N 34°40' E 033°03'2 3.7
2018-Jun-16 00:10N 34°40' E 033°06'0 0.4
2018-Jun-16 00:00N 34°40' E 033°06'0 0.0
2018-Jun-15 22:13N 34°40' E 033°06'0 0.0
2018-Jun-15 21:09N 34°40' E 033°06'1 0.5
2018-Jun-15 19:42N 34°40' E 033°05'0 0.1
2018-Jun-15 19:19N 34°40' E 033°05'0 0.1
2018-Jun-15 18:58N 34°40' E 033°05'0 0.0
2018-Jun-15 15:52N 34°40' E 033°05'2 0.5
2018-Jun-15 11:46N 34°40' E 033°03'2 6.2
2018-Jun-15 11:30N 34°39' E 033°02'0 0.4
2018-Jun-15 11:00N 34°39' E 033°01'0 0.0
2018-Jun-15 10:30N 34°39' E 033°01'0 0.4
2018-Jun-15 10:01N 34°39' E 033°01'0 0.4
2018-Jun-15 09:28N 34°39' E 033°01'0 0.0
2018-Jun-15 08:58N 34°39' E 033°01'0 0.0
2018-Jun-15 08:28N 34°39' E 033°01'0 0.0
2018-Jun-15 07:58N 34°39' E 033°01'0 0.0
2018-Jun-15 07:28N 34°39' E 033°01'0 0.0
2018-Jun-15 06:58N 34°39' E 033°01'0 0.0
2018-Jun-15 06:25N 34°39' E 033°01'0 0.0
2018-Jun-15 05:58N 34°39' E 033°01'1 1.1
2018-Jun-15 05:30N 34°39' E 033°02'3 0.2
2018-Jun-14 14:48N 34°40' E 033°05'1 0.2
2018-Jun-14 07:06N 34°40' E 033°03'1 7.9
2018-Jun-14 07:00N 34°39' E 033°03'1 1.6
2018-Jun-14 06:10N 34°39' E 033°01'0 0.0
2018-Jun-14 05:49N 34°39' E 033°01'0 0.0
2018-Jun-14 05:28N 34°39' E 033°01'0 0.0
2018-Jun-14 05:01N 34°39' E 033°01'2 3.6
2018-Jun-14 04:29N 34°40' E 033°03'0 0.9
2018-Jun-14 03:57N 34°40' E 033°03'0 0.0
2018-Jun-14 03:30N 34°40' E 033°03'0 0.0
2018-Jun-14 02:51N 34°40' E 033°03'0 0.0
2018-Jun-14 02:30N 34°40' E 033°03'0 0.0
2018-Jun-14 01:00N 34°40' E 033°03'0 0.0
2018-Jun-14 00:30N 34°40' E 033°03'0 0.0
2018-Jun-13 23:06N 34°40' E 033°03'0 0.0
2018-Jun-13 22:57N 34°40' E 033°03'0 0.0
2018-Jun-13 22:18N 34°40' E 033°03'0 0.0
2018-Jun-13 21:54N 34°40' E 033°03'0 0.0
2018-Jun-13 21:09N 34°40' E 033°03'0 0.0
2018-Jun-13 21:00N 34°40' E 033°03'0 0.0
2018-Jun-13 19:57N 34°40' E 033°03'1 0.1
2018-Jun-13 15:01N 34°40' E 033°04'0 0.0
2018-Jun-13 14:34N 34°40' E 033°04'0 0.0
2018-Jun-13 14:26N 34°40' E 033°04'0 0.0
2018-Jun-13 12:58N 34°40' E 033°04'2 4.1
2018-Jun-13 12:30N 34°39' E 033°02'0 0.3
2018-Jun-13 11:14N 34°39' E 033°01'0 0.0
2018-Jun-13 11:00N 34°39' E 033°01'0 0.0
2018-Jun-13 10:30N 34°39' E 033°01'0 0.0
2018-Jun-13 10:00N 34°39' E 033°01'0 0.6
2018-Jun-13 09:30N 34°39' E 033°01'0 0.4
2018-Jun-13 08:59N 34°39' E 033°01'0 0.0
2018-Jun-13 08:27N 34°39' E 033°01'0 0.0
2018-Jun-13 08:00N 34°39' E 033°01'0 0.0
2018-Jun-13 07:15N 34°39' E 033°01'0 0.0
2018-Jun-13 06:44N 34°39' E 033°01'0 0.0
2018-Jun-13 06:30N 34°39' E 033°01'2 0.2
2018-Jun-12 17:54N 34°40' E 033°04'1 0.2
2018-Jun-12 15:38N 34°40' E 033°03'0 0.5
2018-Jun-12 15:29N 34°40' E 033°03'0 0.1
2018-Jun-12 11:58N 34°40' E 033°03'2 0.6
2018-Jun-12 08:50N 34°39' E 033°01'1 1.9
2018-Jun-12 08:29N 34°39' E 033°02'1 0.0
2018-Jun-10 09:16N 34°40' E 033°03'0 0.0
2018-Jun-09 19:42N 34°40' E 033°03'0 1.0
2018-Jun-09 19:30N 34°40' E 033°03'0 0.0
2018-Jun-09 19:00N 34°40' E 033°03'0 0.0
2018-Jun-09 18:30N 34°40' E 033°03'0 0.0
2018-Jun-09 18:01N 34°40' E 033°03'0 0.0
2018-Jun-09 17:19N 34°40' E 033°03'0 0.0
2018-Jun-09 17:00N 34°40' E 033°03'0 0.0
2018-Jun-09 16:30N 34°40' E 033°03'0 0.0
2018-Jun-09 16:00N 34°40' E 033°03'1 0.2
2018-Jun-09 09:20N 34°41' E 033°04'0 0.0
2018-Jun-09 08:57N 34°41' E 033°04'0 0.0
2018-Jun-09 07:45N 34°41' E 033°04'0 0.0
2018-Jun-09 07:23N 34°41' E 033°04'  

Dump ship's entire track history